Time,TemperatureF,DewpointF,PressureIn,WindDirection,WindDirectionDegrees,WindSpeedMPH,WindSpeedGustMPH,Humidity,HourlyPrecipIn,Conditions,Clouds,dailyrainin,SolarRadiationWatts/m^2,SoftwareType,DateUTC
2013-03-28 12:02:00,45.0,41.0,-100.00,SE,145,5.0,9.0,85,-99.99,,,0.02,335.000000,,2013-03-28 19:02:00,
2013-03-28 12:12:00,45.0,41.0,-100.00,SE,145,5.0,9.0,85,-99.99,,,0.02,335.000000,,2013-03-28 19:12:00,
2013-03-28 12:22:00,45.0,41.0,-100.00,SE,145,5.0,9.0,85,-99.99,,,0.02,335.000000,,2013-03-28 19:22:00,
2013-03-28 12:32:00,45.0,41.0,-100.00,SE,145,5.0,9.0,85,-99.99,,,0.02,335.000000,,2013-03-28 19:32:00,
2013-03-28 12:52:00,49.0,42.0,-100.00,East,101,5.0,8.0,78,0.00,,,0.02,424.000000,,2013-03-28 19:52:00,
2013-03-28 13:02:00,49.0,42.0,-100.00,East,101,5.0,8.0,78,0.00,,,0.02,424.000000,,2013-03-28 20:02:00,
2013-03-28 13:12:00,49.0,42.0,-100.00,East,101,5.0,8.0,78,0.00,,,0.02,424.000000,,2013-03-28 20:12:00,
2013-03-28 13:22:00,49.0,42.0,-100.00,East,101,5.0,8.0,78,0.00,,,0.02,424.000000,,2013-03-28 20:22:00,
2013-03-28 13:32:00,49.0,42.0,-100.00,East,101,5.0,8.0,78,0.00,,,0.02,424.000000,,2013-03-28 20:32:00,
2013-03-28 13:53:00,52.0,43.0,-100.00,SE,133,5.0,9.0,71,0.00,,,0.02,656.000000,,2013-03-28 20:53:00,
2013-03-28 14:02:00,52.0,43.0,-100.00,SE,133,5.0,9.0,71,0.00,,,0.02,656.000000,,2013-03-28 21:02:00,
2013-03-28 14:12:00,52.0,43.0,-100.00,SE,133,5.0,9.0,71,0.00,,,0.02,656.000000,,2013-03-28 21:12:00,
2013-03-28 14:22:00,52.0,43.0,-100.00,SE,133,5.0,9.0,71,0.00,,,0.02,656.000000,,2013-03-28 21:22:00,
2013-03-28 14:32:00,52.0,43.0,-100.00,SE,133,5.0,9.0,71,0.00,,,0.02,656.000000,,2013-03-28 21:32:00,
2013-03-28 14:53:00,53.0,42.0,-100.00,SW,221,4.0,11.0,65,0.00,,,0.02,777.000000,,2013-03-28 21:53:00,
2013-03-28 15:02:00,53.0,42.0,-100.00,SW,221,4.0,11.0,65,0.00,,,0.02,777.000000,,2013-03-28 22:02:00,
2013-03-28 15:12:00,53.0,42.0,-100.00,SW,221,4.0,11.0,65,0.00,,,0.02,777.000000,,2013-03-28 22:12:00,
2013-03-28 15:22:00,53.0,42.0,-100.00,SW,221,4.0,11.0,65,0.00,,,0.02,777.000000,,2013-03-28 22:22:00,
2013-03-28 15:32:00,53.0,42.0,-100.00,SW,221,4.0,11.0,65,0.00,,,0.02,777.000000,,2013-03-28 22:32:00,
2013-03-28 15:52:00,53.0,43.0,-100.00,WSW,249,6.0,12.0,69,0.01,,,0.03,331.000000,,2013-03-28 22:52:00,
2013-03-28 16:02:00,53.0,43.0,-100.00,WSW,249,6.0,12.0,69,0.01,,,0.03,331.000000,,2013-03-28 23:02:00,
2013-03-28 16:12:00,53.0,43.0,-100.00,WSW,249,6.0,12.0,69,0.01,,,0.03,331.000000,,2013-03-28 23:12:00,
2013-03-28 16:21:00,53.0,43.0,-100.00,WSW,249,6.0,12.0,69,0.01,,,0.03,331.000000,,2013-03-28 23:21:00,
2013-03-28 16:32:00,53.0,43.0,-100.00,WSW,249,6.0,12.0,69,0.01,,,0.03,331.000000,,2013-03-28 23:32:00,
2013-03-28 16:52:00,51.0,35.0,-100.00,NNW,339,4.0,10.0,54,0.00,,,0.03,384.000000,,2013-03-28 23:52:00,
2013-03-28 17:02:00,51.0,35.0,-100.00,NNW,339,4.0,10.0,54,0.00,,,0.03,384.000000,,2013-03-29 00:02:00,
2013-03-28 17:12:00,51.0,35.0,-100.00,NNW,339,4.0,10.0,54,0.00,,,0.03,384.000000,,2013-03-29 00:12:00,
2013-03-28 17:22:00,51.0,35.0,-100.00,NNW,339,4.0,10.0,54,0.00,,,0.03,384.000000,,2013-03-29 00:22:00,
2013-03-28 17:32:00,51.0,35.0,-100.00,NNW,339,4.0,10.0,54,0.00,,,0.03,384.000000,,2013-03-29 00:32:00,
2013-03-28 17:52:00,48.0,37.0,-100.00,NNE,17,7.0,13.0,65,0.00,,,-99.99,165.000000,,2013-03-29 00:52:00,
2013-03-28 18:02:00,48.0,37.0,-100.00,NNE,17,7.0,13.0,65,0.00,,,-99.99,165.000000,,2013-03-29 01:02:00,
2013-03-28 18:12:00,48.0,37.0,-100.00,NNE,17,7.0,13.0,65,0.00,,,-99.99,165.000000,,2013-03-29 01:12:00,
2013-03-28 18:22:00,48.0,37.0,-100.00,NNE,17,7.0,13.0,65,0.00,,,-99.99,165.000000,,2013-03-29 01:22:00,
2013-03-28 18:31:00,48.0,37.0,-100.00,NNE,17,7.0,13.0,65,0.00,,,-99.99,165.000000,,2013-03-29 01:31:00,
2013-03-28 18:52:00,46.0,38.0,-100.00,NNW,347,3.0,13.0,73,0.00,,,-99.99,85.000000,,2013-03-29 01:52:00,
2013-03-28 19:02:00,46.0,38.0,-100.00,NNW,347,3.0,13.0,73,0.00,,,-99.99,85.000000,,2013-03-29 02:02:00,
2013-03-28 19:12:00,46.0,38.0,-100.00,NNW,347,3.0,13.0,73,0.00,,,-99.99,85.000000,,2013-03-29 02:12:00,
2013-03-28 19:22:00,46.0,38.0,-100.00,NNW,347,3.0,13.0,73,0.00,,,-99.99,85.000000,,2013-03-29 02:22:00,
2013-03-28 19:32:00,46.0,38.0,-100.00,NNW,347,3.0,13.0,73,0.00,,,-99.99,85.000000,,2013-03-29 02:32:00,
2013-03-28 19:53:00,43.0,40.0,-100.00,NNE,15,5.0,12.0,89,0.05,,,-99.99,5.000000,,2013-03-29 02:53:00,
2013-03-28 20:02:00,43.0,40.0,-100.00,NNE,15,5.0,12.0,89,0.05,,,-99.99,5.000000,,2013-03-29 03:02:00,
2013-03-28 20:12:00,43.0,40.0,-100.00,NNE,15,5.0,12.0,89,0.05,,,-99.99,5.000000,,2013-03-29 03:12:00,
2013-03-28 20:21:00,43.0,40.0,-100.00,NNE,15,5.0,12.0,89,0.05,,,-99.99,5.000000,,2013-03-29 03:21:00,
2013-03-28 20:32:00,43.0,40.0,-100.00,NNE,15,5.0,12.0,89,0.05,,,-99.99,5.000000,,2013-03-29 03:32:00,
2013-03-28 20:53:00,43.0,40.0,-100.00,North,1,4.0,9.0,89,0.00,,,-99.99,0.000000,,2013-03-29 03:53:00,
2013-03-28 21:02:00,43.0,40.0,-100.00,North,1,4.0,9.0,89,0.00,,,-99.99,0.000000,,2013-03-29 04:02:00,
2013-03-28 21:12:00,43.0,40.0,-100.00,North,1,4.0,9.0,89,0.00,,,-99.99,0.000000,,2013-03-29 04:12:00,
2013-03-28 21:22:00,43.0,40.0,-100.00,North,1,4.0,9.0,89,0.00,,,-99.99,0.000000,,2013-03-29 04:22:00,
2013-03-28 21:32:00,43.0,40.0,-100.00,North,1,4.0,9.0,89,0.00,,,-99.99,0.000000,,2013-03-29 04:32:00,
2013-03-28 21:52:00,42.0,38.0,-100.00,NNW,333,2.0,9.0,86,0.02,,,-99.99,0.000000,,2013-03-29 04:52:00,
2013-03-28 22:02:00,42.0,38.0,-100.00,NNW,333,2.0,9.0,86,0.02,,,-99.99,0.000000,,2013-03-29 05:02:00,
2013-03-28 22:12:00,42.0,38.0,-100.00,NNW,333,2.0,9.0,86,0.02,,,-99.99,0.000000,,2013-03-29 05:12:00,
2013-03-28 22:22:00,42.0,38.0,-100.00,NNW,333,2.0,9.0,86,0.02,,,-99.99,0.000000,,2013-03-29 05:22:00,
2013-03-28 22:32:00,42.0,38.0,-100.00,NNW,333,2.0,9.0,86,0.02,,,-99.99,0.000000,,2013-03-29 05:32:00,
2013-03-28 22:52:00,42.0,39.0,-100.00,NNW,341,2.0,4.0,89,0.00,,,-99.99,0.000000,,2013-03-29 05:52:00,
2013-03-28 23:02:00,42.0,39.0,-100.00,NNW,341,2.0,4.0,89,0.00,,,-99.99,0.000000,,2013-03-29 06:02:00,
2013-03-28 23:12:00,42.0,39.0,-100.00,NNW,341,2.0,4.0,89,0.00,,,-99.99,0.000000,,2013-03-29 06:12:00,
2013-03-28 23:22:00,42.0,39.0,-100.00,NNW,341,2.0,4.0,89,0.00,,,-99.99,0.000000,,2013-03-29 06:22:00,
2013-03-28 23:32:00,42.0,39.0,-100.00,NNW,341,2.0,4.0,89,0.00,,,-99.99,0.000000,,2013-03-29 06:32:00,
2013-03-28 23:52:00,42.0,39.0,-100.00,NNE,13,4.0,6.0,88,0.00,,,-99.99,0.000000,,2013-03-29 06:52:00,